Time;durP1;ratioP1;P1;durP2;ratioP2;P2;SDS_P1;SDS_P2;PMS_P1;PMS_P2;Temp;Humidity;BMP_temperature;BMP_pressure;BME280_temperature;BME280_humidity;BME280_pressure;Samples;Min_cycle;Max_cycle;Signal;HPM_P1;HPM_P2
2022/08/14 00:01:38;;;;;;;1.77;0.80;;;;;;;;;;21051823;28;20219;-82
2022/08/14 00:11:40;;;;;;;0.85;0.65;;;;;;;;;;21009286;28;20281;-80
2022/08/14 00:21:42;;;;;;;0.90;0.70;;;;;;;;;;20982589;28;20592;-82
2022/08/14 00:31:44;;;;;;;2.22;0.80;;;;;;;;;;21000156;28;20282;-81
2022/08/14 00:41:46;;;;;;;2.55;0.70;;;;;;;;;;20965203;28;20290;-83
2022/08/14 00:51:48;;;;;;;2.88;1.17;;;;;;;;;;20964517;28;20571;-78
2022/08/14 01:01:50;;;;;;;1.42;0.70;;;;;;;;;;20979027;28;20790;-81
2022/08/14 01:11:56;;;;;;;0.95;0.80;;;;;;;;;;20945425;28;20231;-83
2022/08/14 01:21:57;;;;;;;1.70;0.90;;;24.70;79.40;;;;;;20961308;28;20227;-82
2022/08/14 01:32:03;;;;;;;1.90;0.82;;;;;;;;;;20962418;28;20257;-83
2022/08/14 01:42:05;;;;;;;2.17;0.90;;;;;;;;;;20960217;28;20234;-81
2022/08/14 01:52:07;;;;;;;1.23;0.80;;;;;;;;;;20959887;28;20281;-79
2022/08/14 02:02:13;;;;;;;2.33;0.88;;;;;;;;;;20992893;28;20645;-80
2022/08/14 02:12:15;;;;;;;0.85;0.80;;;;;;;;;;20993500;28;20584;-78
2022/08/14 02:22:18;;;;;;;2.45;1.13;;;;;;;;;;20980675;28;20591;-82
2022/08/14 02:32:20;;;;;;;2.53;0.95;;;;;;;;;;20988948;28;20268;-84
2022/08/14 02:42:23;;;;;;;1.98;1.00;;;;;;;;;;21067423;28;20654;-79
2022/08/14 02:52:26;;;;;;;1.23;0.93;;;;;;;;;;21073521;28;20246;-83
2022/08/14 03:02:32;;;;;;;1.83;1.10;;;;;;;;;;21039383;28;20221;-82
2022/08/14 03:12:33;;;;;;;2.78;0.90;;;;;;;;;;21022036;28;20250;-82
2022/08/14 03:22:35;;;;;;;3.05;0.90;;;;;;;;;;21022798;28;20214;-81
2022/08/14 03:32:37;;;;;;;3.70;1.27;;;;;;;;;;21070741;28;20208;-83
2022/08/14 03:42:39;;;;;;;2.25;1.27;;;;;;;;;;21036452;28;20815;-82
2022/08/14 03:52:42;;;;;;;4.88;1.15;;;22.30;90.30;;;;;;21066187;28;20204;-81
2022/08/14 04:02:47;;;;;;;3.20;1.30;;;;;;;;;;21034362;28;20764;-80
2022/08/14 04:12:48;;;;;;;2.83;1.38;;;;;;;;;;21066571;28;20217;-79
2022/08/14 04:22:52;;;;;;;1.55;0.95;;;;;;;;;;21006548;28;20267;-80
2022/08/14 04:32:54;;;;;;;3.92;1.20;;;;;;;;;;21032368;28;20792;-80
2022/08/14 04:53:17;;;;;;;5.75;1.45;;;;;;;;;;21080222;28;20285;-80
2022/08/14 05:03:27;;;;;;;3.60;1.30;;;;;;;;;;21080177;28;20212;-80
2022/08/14 05:13:29;;;;;;;4.25;1.38;;;22.50;94.50;;;;;;21041242;28;20282;-82
2022/08/14 05:23:35;;;;;;;5.57;1.40;;;22.60;94.90;;;;;;20878848;28;20203;-82
2022/08/14 05:33:36;;;;;;;4.65;1.45;;;;;;;;;;20877902;28;20252;-79
2022/08/14 05:43:39;;;;;;;2.47;1.40;;;22.80;96.00;;;;;;20911010;28;20265;-80
2022/08/14 05:53:41;;;;;;;3.75;1.92;;;;;;;;;;20909254;28;20578;-78
2022/08/14 06:03:43;;;;;;;2.63;1.63;;;;;;;;;;20887726;28;20206;-80
2022/08/14 06:13:44;;;;;;;2.35;1.70;;;;;;;;;;21024034;28;20225;-79
2022/08/14 06:23:46;;;;;;;2.85;1.92;;;;;;;;;;21003276;28;20214;-80
2022/08/14 06:33:49;;;;;;;3.15;2.65;;;;;;;;;;20991299;28;20245;-79
2022/08/14 06:43:50;;;;;;;4.63;2.60;;;;;;;;;;20989989;28;20245;-78
2022/08/14 06:53:52;;;;;;;5.47;2.88;;;;;;;;;;20989892;28;20279;-78
2022/08/14 07:14:15;;;;;;;3.85;3.05;;;;;;;;;;20988313;28;20977;-80
2022/08/14 07:24:17;;;;;;;6.38;2.75;;;;;;;;;;20980408;28;20235;-78
2022/08/14 07:34:19;;;;;;;4.47;3.20;;;;;;;;;;20986795;28;20218;-78
2022/08/14 07:44:21;;;;;;;3.55;2.95;;;;;;;;;;20968704;28;20756;-78
2022/08/14 07:54:22;;;;;;;4.35;3.05;;;25.70;90.30;;;;;;20994647;28;20257;-79
2022/08/14 08:04:25;;;;;;;3.92;2.88;;;;;;;;;;21001277;28;20264;-78
2022/08/14 08:14:28;;;;;;;3.97;2.80;;;;;;;;;;20967329;28;20223;-80
2022/08/14 08:24:29;;;;;;;5.68;2.85;;;;;;;;;;20979177;28;20250;-79
2022/08/14 08:34:31;;;;;;;3.65;2.72;;;;;;;;;;21016357;28;20231;-77
2022/08/14 08:44:33;;;;;;;2.55;2.05;;;;;;;;;;21010035;28;20222;-80
2022/08/14 08:54:34;;;;;;;3.78;2.17;;;;;;;;;;21016407;28;20231;-77
2022/08/14 09:04:43;;;;;;;3.53;2.53;;;;;;;;;;21080376;28;20211;-79
2022/08/14 09:14:47;;;;;;;3.83;2.13;;;;;;;;;;20977336;28;20240;-79
2022/08/14 09:24:49;;;;;;;3.13;2.03;;;;;;;;;;20932898;28;20213;-79
2022/08/14 09:35:11;;;;;;;2.88;2.00;;;27.30;90.60;;;;;;20922781;28;20642;-79
2022/08/14 09:45:18;;;;;;;2.10;1.40;;;27.50;84.00;;;;;;20934994;28;20208;-79
2022/08/14 09:55:21;;;;;;;2.13;1.25;;;;;;;;;;20941267;28;20231;-79
2022/08/14 10:05:30;;;;;;;1.48;0.95;;;;;;;;;;20995250;28;20222;-79
2022/08/14 10:15:37;;;;;;;1.77;1.23;;;28.00;82.20;;;;;;20937668;28;20261;-79
2022/08/14 10:25:39;;;;;;;1.50;1.00;;;;;;;;;;20989722;28;20704;-80
2022/08/14 10:35:43;;;;;;;1.60;1.20;;;28.70;79.60;;;;;;20971483;28;20313;-80
2022/08/14 10:46:00;;;;;;;1.33;0.80;;;29.00;75.10;;;;;;20872871;28;20213;-79
2022/08/14 10:56:08;;;;;;;1.38;0.73;;;29.30;75.80;;;;;;20911044;28;20286;-80
2022/08/14 11:06:21;;;;;;;1.08;0.70;;;;;;;;;;21019909;28;20221;-79
2022/08/14 11:16:24;;;;;;;0.95;0.70;;;29.60;65.90;;;;;;21004511;28;20298;-79
2022/08/14 11:26:27;;;;;;;1.10;0.80;;;;;;;;;;21003183;28;20246;-79
2022/08/14 11:36:29;;;;;;;1.17;0.70;;;;;;;;;;20985769;28;20259;-79
2022/08/14 11:46:31;;;;;;;1.02;0.70;;;;;;;;;;21003017;28;20215;-79
2022/08/14 11:56:38;;;;;;;0.90;0.60;;;30.60;64.30;;;;;;21001588;28;20301;-79
2022/08/14 12:06:51;;;;;;;1.10;0.60;;;30.80;64.10;;;;;;20983446;28;20791;-79
2022/08/14 12:17:05;;;;;;;1.05;0.63;;;31.00;66.70;;;;;;21042196;28;20225;-80
2022/08/14 12:27:07;;;;;;;0.60;0.45;;;;;;;;;;21031569;28;20694;-79
2022/08/14 12:37:09;;;;;;;0.95;0.73;;;;;;;;;;21080794;28;20228;-80
2022/08/14 12:47:19;;;;;;;1.00;0.70;;;31.80;61.50;;;;;;21064578;28;20250;-79
2022/08/14 12:57:23;;;;;;;0.47;0.45;;;;;;;;;;21072529;28;20232;-80
2022/08/14 13:07:27;;;;;;;1.63;0.82;;;31.70;61.10;;;;;;21020526;28;20208;-80
2022/08/14 13:17:31;;;;;;;0.80;0.60;;;31.80;60.00;;;;;;21010027;28;20251;-79
2022/08/14 13:27:36;;;;;;;0.80;0.57;;;;;;;;;;21057818;28;20220;-80
2022/08/14 13:37:40;;;;;;;0.85;0.65;;;32.00;60.10;;;;;;21027337;28;20225;-78
2022/08/14 13:47:42;;;;;;;0.70;0.50;;;32.00;60.00;;;;;;21047425;28;20214;-79
2022/08/14 13:57:45;;;;;;;0.98;0.70;;;;;;;;;;20975109;28;20279;-78
2022/08/14 14:07:49;;;;;;;1.27;0.63;;;32.50;58.50;;;;;;20908162;28;20248;-79
2022/08/14 14:17:51;;;;;;;1.00;0.63;;;;;;;;;;20890723;28;20313;-80
2022/08/14 14:27:58;;;;;;;1.23;0.80;;;32.50;58.20;;;;;;20889233;28;20213;-79
2022/08/14 14:38:02;;;;;;;0.80;0.55;;;;;;;;;;20889927;28;20260;-80
2022/08/14 14:48:08;;;;;;;1.00;0.60;;;32.60;51.70;;;;;;20906478;28;20739;-80
2022/08/14 14:58:10;;;;;;;1.30;0.63;;;;;;;;;;20888222;28;20226;-80
2022/08/14 15:08:12;;;;;;;0.70;0.60;;;;;;;;;;20905212;28;20279;-82
2022/08/14 15:18:14;;;;;;;1.35;0.65;;;;;;;;;;20919481;28;20226;-81
2022/08/14 15:28:17;;;;;;;1.30;0.80;;;;;;;;;;20905314;28;20236;-79
2022/08/14 15:38:18;;;;;;;0.90;0.60;;;;;;;;;;20900882;28;20303;-82
2022/08/14 15:48:20;;;;;;;0.60;0.52;;;;;;;;;;20914329;28;20288;-81
2022/08/14 15:58:25;;;;;;;1.40;0.70;;;;;;;;;;20983283;28;20237;-80
2022/08/14 16:08:27;;;;;;;1.20;0.70;;;;;;;;;;21066330;28;20216;-80
2022/08/14 16:18:35;;;;;;;0.73;0.57;;;31.50;59.80;;;;;;21085427;28;20255;-79
2022/08/14 16:28:37;;;;;;;1.40;0.90;;;;;;;;;;21068819;28;20289;-80
2022/08/14 16:38:41;;;;;;;0.75;0.55;;;;;;;;;;20963585;28;20254;-80
2022/08/14 16:48:54;;;;;;;0.75;0.55;;;;;;;;;;21020757;28;20209;-79
2022/08/14 16:59:07;;;;;;;0.40;0.40;;;31.30;59.10;;;;;;20994388;28;20278;-79
2022/08/14 17:09:29;;;;;;;1.10;0.50;;;;;;;;;;20973067;28;20240;-83
2022/08/14 17:19:38;;;;;;;0.90;0.57;;;;;;;;;;21006893;28;20222;-80
2022/08/14 17:29:41;;;;;;;1.45;0.60;;;;;;;;;;21075126;28;20212;-79
2022/08/14 17:39:58;;;;;;;1.45;0.60;;;;;;;;;;21042414;28;20245;-81
2022/08/14 17:50:02;;;;;;;1.10;0.50;;;;;;;;;;21021109;28;20205;-79
2022/08/14 18:00:06;;;;;;;0.77;0.50;;;;;;;;;;21066195;28;20228;-79
2022/08/14 18:10:08;;;;;;;2.15;0.60;;;;;;;;;;20983619;28;20232;-79
2022/08/14 18:20:11;;;;;;;9.15;1.20;;;;;;;;;;21055778;28;20766;-80
2022/08/14 18:30:19;;;;;;;4.13;1.00;;;;;;;;;;21075323;28;20300;-80
2022/08/14 18:40:21;;;;;;;2.55;0.85;;;;;;;;;;21058673;28;20208;-81
2022/08/14 18:50:27;;;;;;;0.90;0.50;;;;;;;;;;21037106;28;20262;-81
2022/08/14 19:00:42;;;;;;;2.83;0.85;;;;;;;;;;21040116;28;20301;-80
2022/08/14 19:10:43;;;;;;;1.98;0.88;;;;;;;;;;21075149;28;20228;-80
2022/08/14 19:20:51;;;;;;;0.95;0.55;;;29.40;61.60;;;;;;21090289;28;20289;-82
2022/08/14 19:31:21;;;;;;;1.10;0.50;;;29.40;56.20;;;;;;21046144;28;20209;-83
2022/08/14 19:41:23;;;;;;;0.90;0.60;;;;;;;;;;20884730;28;20217;-83
2022/08/14 19:51:25;;;;;;;0.52;0.40;;;;;;;;;;20949508;28;20310;-82
2022/08/14 20:01:29;;;;;;;2.78;0.82;;;;;;;;;;21019124;28;20225;-85
2022/08/14 20:11:36;;;;;;;0.82;0.50;;;;;;;;;;20995357;28;20228;-85
2022/08/14 20:21:39;;;;;;;1.42;0.60;;;;;;;;;;21028083;28;20217;-83
2022/08/14 20:31:40;;;;;;;0.85;0.40;;;;;;;;;;21025362;28;20246;-85
2022/08/14 20:41:45;;;;;;;1.10;0.55;;;;;;;;;;20970025;28;20240;-87
2022/08/14 20:51:50;;;;;;;1.15;0.50;;;;;;;;;;20984765;28;20216;-84
2022/08/14 21:01:54;;;;;;;1.35;0.40;;;;;;;;;;20967247;28;20237;-85
2022/08/14 21:11:56;;;;;;;1.10;0.52;;;;;;;;;;20975585;28;20242;-85
2022/08/14 21:22:00;;;;;;;1.05;0.60;;;;;;;;;;20992351;28;20255;-83
2022/08/14 21:32:01;;;;;;;0.50;0.38;;;;;;;;;;20961633;28;20574;-85
2022/08/14 21:42:04;;;;;;;0.95;0.40;;;;;;;;;;20945872;28;20262;-85
2022/08/14 21:52:11;;;;;;;1.90;0.63;;;28.70;73.20;;;;;;20948379;28;20306;-84
2022/08/14 22:02:13;;;;;;;2.78;0.60;;;;;;;;;;21054315;28;20801;-84
2022/08/14 22:12:15;;;;;;;1.40;0.60;;;;;;;;;;21056199;28;20284;-85
2022/08/14 22:22:16;;;;;;;1.00;0.70;;;;;;;;;;21021248;28;20239;-84
2022/08/14 22:32:18;;;;;;;2.10;0.70;;;;;;;;;;21007144;28;20228;-84
2022/08/14 22:42:20;;;;;;;1.50;0.70;;;;;;;;;;21034470;28;20703;-85
2022/08/14 22:52:22;;;;;;;1.75;1.10;;;;;;;;;;21060645;28;20261;-85
2022/08/14 23:02:28;;;;;;;2.10;0.70;;;;;;;;;;21023776;28;20292;-81
2022/08/14 23:12:30;;;;;;;1.42;0.70;;;;;;;;;;21056391;28;20240;-88
2022/08/14 23:22:35;;;;;;;2.90;0.70;;;;;;;;;;21039214;28;20296;-84
2022/08/14 23:32:40;;;;;;;0.98;0.60;;;;;;;;;;21072524;28;20545;-89
2022/08/14 23:42:57;;;;;;;3.53;0.77;;;;;;;;;;21010131;28;20257;-87
2022/08/14 23:52:59;;;;;;;1.50;0.80;;;;;;;;;;21055423;28;20211;-84
